createdAt,value
2018-02-01T00:08:02.678Z,-0.02
2018-02-01T00:17:39.530Z,-0.01
2018-02-01T00:27:15.684Z,-0.10
2018-02-01T00:36:52.623Z,-0.15
2018-02-01T00:46:29.013Z,-0.17
2018-02-01T00:56:05.549Z,-0.30
2018-02-01T01:05:42.167Z,-0.53
2018-02-01T01:15:18.559Z,-0.61
2018-02-01T01:24:55.418Z,-0.62
2018-02-01T01:34:36.031Z,-0.53
2018-02-01T01:44:05.198Z,-0.47
2018-02-01T01:53:42.561Z,-0.35
2018-02-01T02:03:19.265Z,-0.05
2018-02-01T02:13:00.575Z,-0.14
2018-02-01T02:22:29.540Z,-0.29
2018-02-01T02:32:09.792Z,-0.64
2018-02-01T02:41:38.488Z,-0.62
2018-02-01T02:51:15.038Z,-0.77
2018-02-01T03:00:51.158Z,-0.90
2018-02-01T03:10:28.344Z,-0.83
2018-02-01T03:20:05.327Z,-0.80
2018-02-01T03:29:41.874Z,-0.80
2018-02-01T03:39:18.598Z,-1.01
2018-02-01T03:48:55.307Z,-0.90
2018-02-01T03:58:32.532Z,-0.76
2018-02-01T04:08:09.558Z,-0.47
2018-02-01T04:17:50.224Z,-0.66
2018-02-01T04:27:19.613Z,-0.58
2018-02-01T04:36:56.745Z,-0.66
2018-02-01T04:46:33.869Z,-0.44
2018-02-01T04:56:10.559Z,-0.47
2018-02-01T05:05:47.215Z,-0.41
2018-02-01T05:15:24.404Z,-0.37
2018-02-01T05:25:01.158Z,-0.32
2018-02-01T05:34:38.106Z,-0.35
2018-02-01T05:44:14.410Z,-0.44
2018-02-01T05:53:51.499Z,-0.37
2018-02-01T06:03:28.388Z,-0.28
2018-02-01T06:13:05.179Z,-0.32
2018-02-01T06:22:41.814Z,-0.40
2018-02-01T06:32:19.064Z,-0.25
2018-02-01T06:41:55.772Z,-0.08
2018-02-01T06:51:31.605Z,-0.15
2018-02-01T07:01:12.454Z,0.21
2018-02-01T07:10:49.588Z,0.32
2018-02-01T07:20:26.258Z,0.64
2018-02-01T07:30:03.570Z,0.86
2018-02-01T07:39:40.881Z,1.36
2018-02-01T07:49:17.936Z,1.44
2018-02-01T07:58:55.390Z,1.74
2018-02-01T08:08:32.523Z,1.95
2018-02-01T08:18:09.319Z,2.20
2018-02-01T08:27:46.100Z,2.62
2018-02-01T08:37:23.826Z,3.17
2018-02-01T08:47:01.550Z,4.22
2018-02-01T08:56:39.180Z,4.48
2018-02-01T09:06:20.256Z,4.73
2018-02-01T09:15:48.901Z,4.83
2018-02-01T09:25:25.679Z,4.83
2018-02-01T09:35:02.773Z,4.95
2018-02-01T09:44:39.428Z,5.41
2018-02-01T09:54:18.188Z,6.60
2018-02-01T10:03:59.478Z,6.75
2018-02-01T10:13:32.087Z,6.55
2018-02-01T10:23:05.736Z,7.57
2018-02-01T10:32:40.549Z,8.72
2018-02-01T10:42:11.446Z,9.35
2018-02-01T10:51:47.653Z,9.37
2018-02-01T11:01:28.600Z,9.71
2018-02-01T11:11:01.565Z,9.70
2018-02-01T11:20:31.923Z,10.49
2018-02-01T11:30:10.230Z,10.39
2018-02-01T11:39:39.081Z,10.15
2018-02-01T11:49:15.444Z,10.15
2018-02-01T11:58:52.179Z,10.56
2018-02-01T12:08:29.417Z,10.71
2018-02-01T12:18:06.087Z,10.87
2018-02-01T12:27:43.172Z,10.85
2018-02-01T12:37:19.636Z,10.58
2018-02-01T12:46:56.236Z,10.63
2018-02-01T12:56:33.711Z,11.06
2018-02-01T13:06:14.153Z,10.91
2018-02-01T13:15:42.733Z,10.92
2018-02-01T13:25:19.254Z,10.80
2018-02-01T13:34:55.482Z,10.87
2018-02-01T13:44:32.174Z,10.75
2018-02-01T13:54:09.498Z,10.81
2018-02-01T14:03:46.263Z,10.66
2018-02-01T14:13:22.032Z,10.33
2018-02-01T14:22:58.218Z,10.13
2018-02-01T14:32:38.716Z,10.04
2018-02-01T14:42:07.092Z,9.83
2018-02-01T14:51:42.409Z,9.71
2018-02-01T15:01:26.199Z,9.63
2018-02-01T15:10:58.964Z,9.55
2018-02-01T15:20:31.584Z,9.46
2018-02-01T15:29:59.844Z,9.45
2018-02-01T15:39:35.990Z,9.35
2018-02-01T15:49:12.404Z,9.12
2018-02-01T15:58:48.493Z,8.97
2018-02-01T16:08:24.518Z,8.82
2018-02-01T16:18:04.998Z,8.72
2018-02-01T16:27:33.645Z,8.76
2018-02-01T16:37:10.302Z,8.75
2018-02-01T16:46:50.061Z,8.60
2018-02-01T16:56:18.475Z,8.15
2018-02-01T17:05:54.294Z,7.81
2018-02-01T17:15:35.153Z,7.90
2018-02-01T17:25:07.629Z,7.45
2018-02-01T17:34:40.019Z,7.47
2018-02-01T17:44:08.421Z,7.41
2018-02-01T17:53:45.113Z,7.49
2018-02-01T18:03:25.968Z,7.57
2018-02-01T18:12:58.891Z,7.47
2018-02-01T18:22:27.802Z,7.41
2018-02-01T18:32:07.949Z,7.39
2018-02-01T18:41:41.063Z,7.21
2018-02-01T18:51:09.914Z,7.26
2018-02-01T19:00:46.453Z,7.42
2018-02-01T19:10:23.408Z,7.31
2018-02-01T19:20:03.936Z,6.93
2018-02-01T19:29:31.880Z,6.42
2018-02-01T19:39:11.682Z,6.15
2018-02-01T19:48:43.831Z,5.97
2018-02-01T19:58:12.448Z,5.81
2018-02-01T20:07:48.770Z,5.45
2018-02-01T20:17:24.972Z,5.24
2018-02-01T20:27:05.648Z,5.03
2018-02-01T20:36:33.804Z,4.88
2018-02-01T20:46:10.040Z,4.68
2018-02-01T20:55:46.123Z,4.47
2018-02-01T21:05:28.059Z,4.40
2018-02-01T21:14:55.170Z,4.34
2018-02-01T21:24:35.755Z,4.30
2018-02-01T21:34:04.169Z,4.23
2018-02-01T21:43:40.634Z,4.25
2018-02-01T21:53:17.442Z,4.02
2018-02-01T22:02:53.468Z,3.80
2018-02-01T22:12:34.245Z,3.89
2018-02-01T22:22:03.008Z,3.77
2018-02-01T22:31:39.889Z,3.68
2018-02-01T22:41:16.035Z,3.71
2018-02-01T22:50:56.643Z,3.47
2018-02-01T23:00:25.433Z,3.35
2018-02-01T23:10:02.156Z,3.28
2018-02-01T23:19:39.128Z,3.24
2018-02-01T23:29:15.839Z,3.32
2018-02-01T23:38:52.826Z,3.51
2018-02-01T23:48:29.705Z,3.37
2018-02-01T23:58:06.020Z,3.44
